Gowganda, Canada
Current Conditions -  °F | °C
As of 11:00 PM on Wednesday 28 Jan 2015 (Local Time) from CYXR Reporting Station
Overcast Overcast  
Wind Chill: -14°   Ceiling: 14000
Heat Index:   Visibility: 9mi
Dew Point: -2°   Wind: 9mph
Humidity: 85%   Direction: 150°SSE
Pressure: 30.12"   Gusts: NA
Location:  47.65°N, 80.78°W
Report Text: CYXR 290400Z AUTO 15008KT 9SM BKN140 OVC160 M17/M19 A3012 RMK SLP229
Loading
Personal Weather Stations






























Interactive Weather Map New forecast layout! Learn more

10-Day Weather Forecast

Advertisements
Track Severe Weather on mobile